San Saba, Texas
Current Conditions -  °F | °C
As of 8:55 AM on Thursday 23 Oct 2014 (Local Time) from KLZZ Reporting Station
Scattered Clouds Scattered Clouds  
Wind Chill: 63°   Ceiling: Unl
Heat Index: 63°   Visibility: 10mi
Dew Point: 60°   Wind: 3mph
Humidity: 90%   Direction: 120°ESE
Pressure: 30.14"   Gusts: NA
Location:  31.2°N, 98.72°W
Report Text: KLZZ 231355Z AUTO 12003KT 10SM SCT100 17/16 A3014 RMK AO2 T01730156
Loading
Personal Weather Stations






























Interactive Weather Map New forecast layout! Learn more

10-Day Weather Forecast

Advertisements
Track Severe Weather on mobile